Time;durP1;ratioP1;P1;durP2;ratioP2;P2;SDS_P1;SDS_P2;PMS_P1;PMS_P2;Temp;Humidity;BMP_temperature;BMP_pressure;BME280_temperature;BME280_humidity;BME280_pressure;Samples;Min_cycle;Max_cycle;Signal;HPM_P1;HPM_P2
2023/01/02 00:00:51;;;;;;;14.32;6.30;;;12.40;85.70;;;;;;9175545;19;20021;-69
2023/01/02 00:03:56;;;;;;;11.40;5.72;;;12.40;85.80;;;;;;9176683;19;20021;-69
2023/01/02 00:07:02;;;;;;;23.70;6.30;;;12.40;85.80;;;;;;9174995;19;20017;-71
2023/01/02 00:10:06;;;;;;;15.55;5.95;;;12.40;85.80;;;;;;9171976;19;20063;-70
2023/01/02 00:13:10;;;;;;;12.32;5.18;;;12.40;85.90;;;;;;9173788;19;20026;-70
2023/01/02 00:16:14;;;;;;;12.07;5.57;;;12.50;85.90;;;;;;9171025;19;20602;-69
2023/01/02 00:19:18;;;;;;;13.93;5.65;;;12.50;86.00;;;;;;9176211;19;20019;-69
2023/01/02 00:22:23;;;;;;;11.43;5.20;;;12.50;86.00;;;;;;9174472;19;20037;-70
2023/01/02 00:25:27;;;;;;;24.35;5.15;;;12.50;86.10;;;;;;9173174;19;20376;-70
2023/01/02 00:28:32;;;;;;;17.05;5.50;;;12.50;86.00;;;;;;9166286;19;20023;-70
2023/01/02 00:31:36;;;;;;;16.35;5.68;;;12.50;86.10;;;;;;9175367;19;20373;-70
2023/01/02 00:34:40;;;;;;;17.58;4.88;;;12.50;86.10;;;;;;9165627;19;20010;-71
2023/01/02 00:37:46;;;;;;;8.63;4.50;;;12.50;86.10;;;;;;9168611;19;20014;-69
2023/01/02 00:40:49;;;;;;;15.65;5.13;;;12.50;86.10;;;;;;9172781;19;20022;-70
2023/01/02 00:43:53;;;;;;;11.60;5.05;;;12.50;86.10;;;;;;9173946;19;20014;-69
2023/01/02 00:46:57;;;;;;;15.52;5.57;;;12.50;86.10;;;;;;9173283;19;20027;-70
2023/01/02 00:50:01;;;;;;;11.75;5.45;;;12.50;86.10;;;;;;9167331;19;20368;-70
2023/01/02 00:53:06;;;;;;;15.23;5.18;;;12.60;86.20;;;;;;9179453;19;20379;-70
2023/01/02 00:56:10;;;;;;;19.55;5.22;;;12.60;86.20;;;;;;9182934;19;20007;-70
2023/01/02 00:59:14;;;;;;;27.45;5.93;;;12.60;86.20;;;;;;9182168;19;20070;-71
2023/01/02 01:02:18;;;;;;;12.90;4.65;;;12.60;86.30;;;;;;9180601;19;20014;-70
2023/01/02 01:05:22;;;;;;;13.48;4.75;;;12.60;86.30;;;;;;9182066;19;20015;-70
2023/01/02 01:08:27;;;;;;;24.73;5.20;;;12.60;86.30;;;;;;9182145;19;20361;-71
2023/01/02 01:11:31;;;;;;;22.10;5.45;;;12.60;86.30;;;;;;9181446;19;20019;-70
2023/01/02 01:14:35;;;;;;;15.18;5.70;;;12.60;86.30;;;;;;9182234;19;20014;-70
2023/01/02 01:17:39;;;;;;;17.65;5.10;;;12.60;86.40;;;;;;9180421;19;20042;-70
2023/01/02 01:20:43;;;;;;;11.65;5.03;;;12.70;86.40;;;;;;9181880;19;20057;-70
2023/01/02 01:23:51;;;;;;;12.18;4.70;;;12.60;86.40;;;;;;9179919;19;20475;-70
2023/01/02 01:26:55;;;;;;;11.20;4.55;;;12.70;86.60;;;;;;9181722;19;20786;-71
2023/01/02 01:29:59;;;;;;;16.55;6.30;;;12.60;86.50;;;;;;9180048;19;20010;-70
2023/01/02 01:33:02;;;;;;;26.38;4.72;;;12.70;86.60;;;;;;9181109;19;20724;-71
2023/01/02 01:36:09;;;;;;;21.40;5.55;;;12.70;86.70;;;;;;9181197;19;20463;-71
2023/01/02 01:39:15;;;;;;;14.95;4.90;;;12.70;86.60;;;;;;9181140;19;20026;-71
2023/01/02 01:42:19;;;;;;;17.42;5.32;;;12.70;86.60;;;;;;9181159;19;20015;-71
2023/01/02 01:45:23;;;;;;;13.40;4.18;;;12.70;86.70;;;;;;9181508;19;20025;-71
2023/01/02 01:48:27;;;;;;;14.57;4.78;;;12.80;86.80;;;;;;9177045;19;20039;-71
2023/01/02 01:51:35;;;;;;;10.88;4.53;;;12.80;86.80;;;;;;9176106;19;20344;-71
2023/01/02 01:54:45;;;;;;;11.50;4.25;;;12.80;86.80;;;;;;9180749;19;20029;-70
2023/01/02 01:57:53;;;;;;;10.07;4.07;;;12.80;86.80;;;;;;9181128;19;20022;-69
2023/01/02 02:00:57;;;;;;;10.50;4.05;;;12.80;86.80;;;;;;9179155;19;20051;-70
2023/01/02 02:04:01;;;;;;;11.77;4.18;;;12.80;86.80;;;;;;9176873;19;20010;-71
2023/01/02 02:07:05;;;;;;;14.27;4.72;;;12.90;86.80;;;;;;9178304;19;20491;-70
2023/01/02 02:10:13;;;;;;;16.13;4.72;;;12.90;86.80;;;;;;9178611;19;20018;-71
2023/01/02 02:13:16;;;;;;;16.55;4.32;;;12.90;86.80;;;;;;9178611;19;20031;-71
2023/01/02 02:16:29;;;;;;;8.85;4.50;;;12.90;86.70;;;;;;9178900;19;20014;-71
2023/01/02 02:20:00;;;;;;;22.77;4.85;;;12.90;86.80;;;;;;9179607;19;20018;-71
2023/01/02 02:23:33;;;;;;;10.63;4.43;;;12.90;86.80;;;;;;9177662;19;20011;-71
2023/01/02 02:26:59;;;;;;;18.38;4.93;;;12.90;86.80;;;;;;9180092;19;20003;-70
2023/01/02 02:30:12;;;;;;;12.30;4.60;;;12.90;86.80;;;;;;9177997;19;20007;-71
2023/01/02 02:33:30;;;;;;;16.75;4.75;;;13.00;86.80;;;;;;9179933;19;20015;-71
2023/01/02 02:36:40;;;;;;;13.25;4.43;;;12.90;86.80;;;;;;9178923;19;20365;-70
2023/01/02 02:39:55;;;;;;;9.75;4.28;;;12.90;86.80;;;;;;9177753;19;20026;-70
2023/01/02 02:43:08;;;;;;;11.27;4.10;;;13.00;86.90;;;;;;9179910;19;20481;-70
2023/01/02 02:46:24;;;;;;;13.32;3.75;;;13.00;86.80;;;;;;9179571;19;20047;-71
2023/01/02 02:49:37;;;;;;;18.08;4.13;;;13.00;86.90;;;;;;9169957;19;20010;-70
2023/01/02 02:52:48;;;;;;;14.75;4.18;;;12.90;86.90;;;;;;9178914;19;20035;-70
2023/01/02 02:55:54;;;;;;;12.55;5.13;;;13.00;86.90;;;;;;9178537;19;20014;-69
2023/01/02 02:58:59;;;;;;;12.48;4.38;;;13.00;87.00;;;;;;9178187;19;20367;-70
2023/01/02 03:02:05;;;;;;;16.02;4.20;;;13.00;87.00;;;;;;9178388;19;20042;-68
2023/01/02 03:05:14;;;;;;;8.52;3.53;;;13.00;87.10;;;;;;9176729;19;20014;-70
2023/01/02 03:08:23;;;;;;;11.27;4.18;;;13.00;87.10;;;;;;9177492;19;20015;-70
2023/01/02 03:11:47;;;;;;;8.20;4.25;;;13.00;87.10;;;;;;9177325;19;20352;-68
2023/01/02 03:14:58;;;;;;;18.42;5.00;;;13.00;87.20;;;;;;9176463;19;20014;-69
2023/01/02 03:18:18;;;;;;;14.90;4.03;;;13.00;87.20;;;;;;9173629;19;20054;-69
2023/01/02 03:21:29;;;;;;;12.35;3.85;;;13.00;87.30;;;;;;9175578;19;20018;-69
2023/01/02 03:24:36;;;;;;;10.52;3.90;;;13.00;87.20;;;;;;9178031;19;20022;-69
2023/01/02 03:27:44;;;;;;;14.93;4.47;;;13.00;87.30;;;;;;9177388;19;20076;-69
2023/01/02 03:30:50;;;;;;;10.68;4.07;;;13.00;87.30;;;;;;9174697;19;20014;-69
2023/01/02 03:34:01;;;;;;;13.45;4.10;;;13.00;87.30;;;;;;9177062;19;20018;-69
2023/01/02 03:37:08;;;;;;;14.80;4.05;;;13.10;87.50;;;;;;9177851;19;20463;-70
2023/01/02 03:40:15;;;;;;;11.38;3.85;;;13.00;87.40;;;;;;9177825;19;20023;-69
2023/01/02 03:43:24;;;;;;;22.92;4.88;;;13.00;87.50;;;;;;9177692;19;20025;-70
2023/01/02 03:46:34;;;;;;;10.30;4.57;;;13.00;87.50;;;;;;9177053;19;20038;-70
2023/01/02 03:49:46;;;;;;;13.38;3.90;;;13.10;87.70;;;;;;9168253;19;20023;-69
2023/01/02 03:52:50;;;;;;;12.20;3.95;;;13.10;87.70;;;;;;9177287;19;20038;-69
2023/01/02 03:56:00;;;;;;;;;;;13.10;87.70;;;;;;9176977;19;20030;-68
2023/01/02 03:59:13;;;;;;;16.08;4.20;;;13.10;87.70;;;;;;9174121;19;19931;-69
2023/01/02 04:02:25;;;;;;;15.13;3.67;;;13.10;87.60;;;;;;9174632;19;20019;-70
2023/01/02 04:05:35;;;;;;;21.52;4.32;;;13.10;87.70;;;;;;9175403;19;20019;-68
2023/01/02 04:08:44;;;;;;;13.45;3.20;;;13.10;87.80;;;;;;9176049;19;20021;-69
2023/01/02 04:11:55;;;;;;;13.18;4.22;;;13.10;87.80;;;;;;9173684;19;20014;-68
2023/01/02 04:15:03;;;;;;;12.77;3.42;;;13.10;87.90;;;;;;9174925;19;20033;-70
2023/01/02 04:18:12;;;;;;;8.25;3.75;;;13.10;87.90;;;;;;9175715;19;20011;-68
2023/01/02 04:21:22;;;;;;;7.88;3.10;;;13.10;87.90;;;;;;9175341;19;20347;-70
2023/01/02 04:24:32;;;;;;;12.65;3.63;;;13.10;88.00;;;;;;9175282;19;20017;-68
2023/01/02 04:27:40;;;;;;;10.50;3.50;;;13.10;88.00;;;;;;9179355;19;20016;-70
2023/01/02 04:30:50;;;;;;;13.48;3.83;;;13.20;88.10;;;;;;9181972;19;20033;-69
2023/01/02 04:33:58;;;;;;;17.50;4.32;;;13.20;88.10;;;;;;9182790;19;20010;-69
2023/01/02 04:37:03;;;;;;;11.60;3.33;;;13.20;88.10;;;;;;9181222;19;20019;-70
2023/01/02 04:40:13;;;;;;;14.50;3.90;;;13.20;88.10;;;;;;9183433;19;20021;-70
2023/01/02 04:43:20;;;;;;;11.35;3.20;;;13.20;88.20;;;;;;9182717;19;20030;-69
2023/01/02 04:46:25;;;;;;;13.75;3.53;;;13.20;88.20;;;;;;9183030;19;20820;-70
2023/01/02 04:49:29;;;;;;;9.70;3.33;;;13.20;88.20;;;;;;9175078;19;20429;-70
2023/01/02 04:52:34;;;;;;;9.25;3.42;;;13.20;88.20;;;;;;9182794;19;20014;-70
2023/01/02 04:55:40;;;;;;;16.25;3.67;;;13.20;88.20;;;;;;9181898;19;20022;-70
2023/01/02 04:58:45;;;;;;;19.20;3.75;;;13.30;88.30;;;;;;9182454;19;20359;-70
2023/01/02 05:01:49;;;;;;;12.60;3.70;;;13.30;88.30;;;;;;9182611;19;20015;-70
2023/01/02 05:04:53;;;;;;;6.85;2.90;;;13.30;88.30;;;;;;9181913;19;20032;-70
2023/01/02 05:07:59;;;;;;;9.88;3.50;;;13.30;88.40;;;;;;9181830;19;20014;-70
2023/01/02 05:11:07;;;;;;;7.35;3.40;;;13.30;88.30;;;;;;9178779;19;20082;-70
2023/01/02 05:14:11;;;;;;;6.55;3.13;;;13.30;88.40;;;;;;9181457;19;20014;-70
2023/01/02 05:17:14;;;;;;;;;;;13.30;88.30;;;;;;9183538;19;20129;-70
2023/01/02 05:20:18;;;;;;;13.15;4.13;;;13.30;88.30;;;;;;9180903;19;19918;-71
2023/01/02 05:26:41;;;;;;;14.65;3.67;;;13.30;88.20;;;;;;9181210;19;20037;-70
2023/01/02 05:29:44;;;;;;;13.40;3.05;;;13.30;88.30;;;;;;9180212;19;20018;-70
2023/01/02 05:32:48;;;;;;;11.20;3.38;;;13.40;88.30;;;;;;9181124;19;20011;-70
2023/01/02 05:35:52;;;;;;;7.57;3.20;;;13.40;88.30;;;;;;9181229;19;20042;-70
2023/01/02 05:38:58;;;;;;;10.68;3.53;;;13.40;88.40;;;;;;9178793;19;20015;-70
2023/01/02 05:42:01;;;;;;;9.63;3.53;;;13.40;88.30;;;;;;9180911;19;20010;-70
2023/01/02 05:45:09;;;;;;;13.07;2.85;;;13.40;88.40;;;;;;9181224;19;20043;-70
2023/01/02 05:48:14;;;;;;;6.30;2.97;;;13.40;88.40;;;;;;9177719;19;20010;-71
2023/01/02 05:51:19;;;;;;;9.98;3.40;;;13.40;88.40;;;;;;9171708;19;20014;-71
2023/01/02 05:54:24;;;;;;;9.60;3.42;;;13.40;88.40;;;;;;9180780;19;20019;-69
2023/01/02 05:57:28;;;;;;;12.27;3.28;;;13.40;88.50;;;;;;9178081;19;20006;-69
2023/01/02 06:00:32;;;;;;;8.52;2.70;;;13.40;88.50;;;;;;9178508;19;20074;-71
2023/01/02 06:03:36;;;;;;;12.35;2.78;;;13.40;88.50;;;;;;9179913;19;20011;-70
2023/01/02 06:06:41;;;;;;;7.40;2.95;;;13.40;88.50;;;;;;9177616;19;20018;-70
2023/01/02 06:09:47;;;;;;;8.90;3.00;;;13.40;88.50;;;;;;9177179;19;20041;-70
2023/01/02 06:12:51;;;;;;;10.60;2.85;;;13.40;88.50;;;;;;9177716;19;20014;-69
2023/01/02 06:15:56;;;;;;;16.63;3.65;;;13.40;88.60;;;;;;9179717;19;20011;-69
2023/01/02 06:18:59;;;;;;;10.73;3.20;;;13.40;88.60;;;;;;9177845;19;20498;-69
2023/01/02 06:22:03;;;;;;;12.68;3.63;;;13.40;88.60;;;;;;9180148;19;20519;-68
2023/01/02 06:25:10;;;;;;;12.95;4.32;;;13.40;88.60;;;;;;9180329;19;20038;-71
2023/01/02 06:28:13;;;;;;;10.43;3.30;;;13.40;88.60;;;;;;9178392;19;20808;-71
2023/01/02 06:31:19;;;;;;;10.05;3.30;;;13.40;88.70;;;;;;9177480;19;20478;-70
2023/01/02 06:34:23;;;;;;;6.20;2.78;;;13.40;88.70;;;;;;9178160;19;20015;-70
2023/01/02 06:37:27;;;;;;;11.85;3.65;;;13.30;88.70;;;;;;9179192;19;20503;-70
2023/01/02 06:40:33;;;;;;;7.68;3.42;;;13.30;88.70;;;;;;9177221;19;20602;-70
2023/01/02 06:43:38;;;;;;;9.32;3.10;;;13.30;88.70;;;;;;9179397;19;20022;-71
2023/01/02 06:46:41;;;;;;;10.18;3.70;;;13.30;88.80;;;;;;9179188;19;20369;-71
2023/01/02 06:49:45;;;;;;;9.60;3.88;;;13.30;88.80;;;;;;9173640;19;20019;-68
2023/01/02 06:52:49;;;;;;;11.98;3.50;;;13.30;88.80;;;;;;9178665;19;20007;-69
2023/01/02 06:55:56;;;;;;;7.97;3.33;;;13.30;88.80;;;;;;9179295;19;20030;-70
2023/01/02 06:59:00;;;;;;;12.00;3.60;;;13.30;88.90;;;;;;9177400;19;20014;-71
2023/01/02 07:02:04;;;;;;;16.17;3.78;;;13.30;88.90;;;;;;9173742;19;20026;-71
2023/01/02 07:05:09;;;;;;;;;;;13.30;88.80;;;;;;9177345;19;20038;-71
2023/01/02 07:08:14;;;;;;;12.70;3.30;;;13.30;88.80;;;;;;9175116;19;19926;-70
2023/01/02 07:11:21;;;;;;;7.30;3.08;;;13.30;88.70;;;;;;9175709;19;20025;-69
2023/01/02 07:14:25;;;;;;;13.75;3.90;;;13.30;88.80;;;;;;9178547;19;20030;-69
2023/01/02 07:17:29;;;;;;;;;;;13.30;88.80;;;;;;9165942;19;20875;-71
2023/01/02 07:20:33;;;;;;;11.85;3.95;;;13.30;88.80;;;;;;9170950;19;20319;-69
2023/01/02 07:23:36;;;;;;;10.65;3.00;;;13.30;88.70;;;;;;9176243;19;20041;-70
2023/01/02 07:26:42;;;;;;;10.80;3.15;;;13.30;88.80;;;;;;9175344;19;20059;-70
2023/01/02 07:29:46;;;;;;;7.70;2.97;;;13.30;88.80;;;;;;9176624;19;20006;-70
2023/01/02 07:32:50;;;;;;;10.65;3.53;;;13.30;88.80;;;;;;9177411;19;20018;-70
2023/01/02 07:35:57;;;;;;;13.88;3.67;;;13.40;88.80;;;;;;9176258;19;20360;-71
2023/01/02 07:39:01;;;;;;;13.10;3.15;;;13.30;88.90;;;;;;9176585;19;20029;-70
2023/01/02 07:42:07;;;;;;;11.48;2.60;;;13.30;88.80;;;;;;9175468;19;20467;-69
2023/01/02 07:45:11;;;;;;;5.53;2.60;;;13.30;88.90;;;;;;9175183;19;20093;-70
2023/01/02 07:48:15;;;;;;;6.35;2.10;;;13.30;88.90;;;;;;9173849;19;20018;-69
2023/01/02 07:51:19;;;;;;;;;;;13.30;88.80;;;;;;9165612;19;20014;-69
2023/01/02 07:54:31;;;;;;;3.92;1.00;;;13.30;88.80;;;;;;9176651;19;19946;-69
2023/01/02 07:57:37;;;;;;;1.58;0.80;;;13.30;88.60;;;;;;9174739;19;20015;-69
2023/01/02 08:00:41;;;;;;;0.95;0.60;;;13.30;88.60;;;;;;9176476;19;20021;-69
2023/01/02 08:03:44;;;;;;;1.40;0.80;;;13.20;88.50;;;;;;9182565;19;20031;-69
2023/01/02 08:06:48;;;;;;;1.40;0.80;;;13.20;88.30;;;;;;9182843;19;20089;-69
2023/01/02 08:09:52;;;;;;;0.73;0.40;;;13.10;88.20;;;;;;9183444;19;20026;-69
2023/01/02 08:12:58;;;;;;;1.63;0.80;;;13.00;88.10;;;;;;9183755;19;20014;-70
2023/01/02 08:16:05;;;;;;;0.52;0.52;;;13.00;88.10;;;;;;9176685;19;20010;-69
2023/01/02 08:19:09;;;;;;;1.10;0.88;;;12.90;88.00;;;;;;9177875;19;20019;-69
2023/01/02 08:22:12;;;;;;;1.08;0.77;;;12.80;88.00;;;;;;9182304;19;20018;-69
2023/01/02 08:25:16;;;;;;;1.02;0.90;;;12.80;87.90;;;;;;9182091;19;20026;-69
2023/01/02 08:28:22;;;;;;;;;;;12.70;87.90;;;;;;9181455;19;20023;-69
2023/01/02 08:31:26;;;;;;;3.25;1.98;;;12.70;87.90;;;;;;9180507;19;19922;-69
2023/01/02 08:34:29;;;;;;;1.95;1.27;;;12.60;87.80;;;;;;9181262;19;20054;-69
2023/01/02 08:37:33;;;;;;;1.27;1.17;;;12.50;87.80;;;;;;9181708;19;20038;-69
2023/01/02 08:40:37;;;;;;;;;;;12.50;87.80;;;;;;9182054;19;20015;-70
2023/01/02 08:43:43;;;;;;;2.35;1.38;;;12.40;87.80;;;;;;9181224;19;19934;-69
2023/01/02 08:46:46;;;;;;;2.35;1.55;;;12.40;87.80;;;;;;9178838;19;20022;-68
2023/01/02 08:49:50;;;;;;;2.55;1.83;;;12.30;87.80;;;;;;9175378;19;20026;-68
2023/01/02 08:52:54;;;;;;;2.20;2.00;;;12.30;87.80;;;;;;9182347;19;20011;-69
2023/01/02 08:56:23;;;;;;;2.90;2.47;;;12.20;87.80;;;;;;9177611;19;20018;-69
2023/01/02 08:59:28;;;;;;;3.50;2.47;;;12.20;87.80;;;;;;9176886;19;20680;-68
2023/01/02 09:02:32;;;;;;;2.90;2.00;;;12.10;87.70;;;;;;9174355;19;20015;-68
2023/01/02 09:05:36;;;;;;;3.25;1.88;;;12.10;87.80;;;;;;9171690;19;20053;-69
2023/01/02 09:08:40;;;;;;;;;;;12.00;87.80;;;;;;9175042;19;20015;-69
2023/01/02 09:11:48;;;;;;;2.47;2.10;;;12.00;87.80;;;;;;9172455;19;19923;-70
2023/01/02 09:14:54;;;;;;;3.40;2.35;;;11.90;87.80;;;;;;9174858;19;20430;-69
2023/01/02 09:17:58;;;;;;;3.72;2.92;;;11.90;87.80;;;;;;9174756;19;20043;-70
2023/01/02 09:21:02;;;;;;;4.22;3.17;;;11.80;87.80;;;;;;9174691;19;20770;-69
2023/01/02 09:24:07;;;;;;;5.07;3.08;;;11.80;87.90;;;;;;9176162;19;20018;-69
2023/01/02 09:27:11;;;;;;;4.97;3.40;;;11.80;88.00;;;;;;9175937;19;20018;-71
2023/01/02 09:30:17;;;;;;;3.95;3.22;;;11.80;88.00;;;;;;9173276;19;20022;-69
2023/01/02 09:33:21;;;;;;;4.75;2.35;;;11.80;88.00;;;;;;9176152;19;20011;-69
2023/01/02 09:36:25;;;;;;;4.28;2.90;;;11.70;87.90;;;;;;9176681;19;20052;-69
2023/01/02 09:39:29;;;;;;;2.90;2.55;;;11.70;87.90;;;;;;9180790;19;20025;-69
2023/01/02 09:42:36;;;;;;;3.35;2.20;;;11.70;87.90;;;;;;9174032;19;20035;-69
2023/01/02 09:45:44;;;;;;;;;;;11.60;87.90;;;;;;9175332;19;20014;-69
2023/01/02 09:48:47;;;;;;;3.30;2.60;;;11.60;87.90;;;;;;9173401;19;19942;-69
2023/01/02 09:51:51;;;;;;;3.92;2.72;;;11.60;87.90;;;;;;9165274;19;20014;-70
2023/01/02 09:54:56;;;;;;;9.18;2.90;;;11.60;88.00;;;;;;9179076;19;20042;-71
2023/01/02 09:58:09;;;;;;;2.17;1.92;;;11.60;88.00;;;;;;9180256;19;20395;-71
2023/01/02 10:01:22;;;;;;;2.63;2.03;;;11.50;88.00;;;;;;9178640;19;20420;-71
2023/01/02 10:04:41;;;;;;;3.38;1.70;;;11.50;88.00;;;;;;9178979;19;20476;-71
2023/01/02 10:07:53;;;;;;;4.47;2.00;;;11.50;88.10;;;;;;9180680;19;20011;-76
2023/01/02 10:11:06;;;;;;;1.55;1.42;;;11.50;88.00;;;;;;9177193;19;20014;-73
2023/01/02 10:14:17;;;;;;;1.40;1.30;;;11.50;88.00;;;;;;9173707;19;20052;-74
2023/01/02 10:17:29;;;;;;;4.35;2.60;;;11.50;88.00;;;;;;9170234;19;20623;-72
2023/01/02 10:20:39;;;;;;;1.73;1.38;;;11.40;87.90;;;;;;9173766;19;20029;-72
2023/01/02 10:23:48;;;;;;;1.65;1.40;;;11.40;87.90;;;;;;9172113;19;20022;-72
2023/01/02 10:26:54;;;;;;;2.97;1.30;;;11.40;87.90;;;;;;9171828;19;20471;-75
2023/01/02 10:30:08;;;;;;;1.40;1.30;;;11.40;88.00;;;;;;9174307;19;20026;-76
2023/01/02 10:33:19;;;;;;;7.33;2.03;;;11.40;88.00;;;;;;9174292;19;20040;-71
2023/01/02 10:36:26;;;;;;;4.45;1.45;;;11.40;88.60;;;;;;9175769;19;20042;-72
2023/01/02 10:39:35;;;;;;;5.07;1.63;;;11.40;88.00;;;;;;9173196;19;20022;-72
2023/01/02 10:42:38;;;;;;;1.63;1.33;;;11.30;88.00;;;;;;9167410;19;20033;-72
2023/01/02 10:45:43;;;;;;;4.68;1.52;;;11.30;87.90;;;;;;9170084;19;20024;-76
2023/01/02 10:48:50;;;;;;;2.47;1.23;;;11.30;88.00;;;;;;9161486;19;20018;-72
2023/01/02 10:52:05;;;;;;;2.80;1.35;;;11.30;88.00;;;;;;9159106;19;20352;-72
2023/01/02 10:55:10;;;;;;;2.50;1.25;;;11.30;87.90;;;;;;9170285;19;20090;-74
2023/01/02 10:58:21;;;;;;;5.05;1.60;;;11.20;87.90;;;;;;9166671;19;20766;-69
2023/01/02 11:01:24;;;;;;;2.95;1.15;;;11.20;87.90;;;;;;9172845;19;20014;-70
2023/01/02 11:04:31;;;;;;;3.60;1.40;;;11.20;88.00;;;;;;9169876;19;20014;-71
2023/01/02 11:07:38;;;;;;;8.15;1.42;;;11.20;88.00;;;;;;9168237;19;20014;-69
2023/01/02 11:10:42;;;;;;;2.97;0.98;;;11.20;88.00;;;;;;9170002;19;20891;-70
2023/01/02 11:13:47;;;;;;;;;;;11.20;88.00;;;;;;9174061;19;20044;-69
2023/01/02 11:17:06;;;;;;;3.30;1.38;;;11.20;88.00;;;;;;9173572;19;19926;-69
2023/01/02 11:20:25;;;;;;;2.60;1.35;;;11.10;87.80;;;;;;9171232;19;20033;-70
2023/01/02 11:23:35;;;;;;;5.35;1.45;;;11.10;87.90;;;;;;9172139;19;20015;-69
2023/01/02 11:26:41;;;;;;;3.13;1.40;;;11.10;87.90;;;;;;9169783;19;20706;-72
2023/01/02 11:29:48;;;;;;;3.88;1.40;;;11.10;88.00;;;;;;9165546;19;20018;-69
2023/01/02 11:33:03;;;;;;;4.45;1.48;;;11.10;88.00;;;;;;9165939;19;20026;-69
2023/01/02 11:36:19;;;;;;;1.85;1.25;;;11.10;88.00;;;;;;9167746;19;20029;-70
2023/01/02 11:39:24;;;;;;;4.70;1.45;;;11.10;88.00;;;;;;9170972;19;20025;-71
2023/01/02 11:45:55;;;;;;;3.13;1.52;;;11.10;88.00;;;;;;9165330;19;20064;-69
2023/01/02 11:49:05;;;;;;;1.83;1.02;;;11.10;88.00;;;;;;9164929;19;20039;-69
2023/01/02 11:52:16;;;;;;;4.78;1.80;;;11.00;88.00;;;;;;9163911;19;20014;-67
2023/01/02 11:55:33;;;;;;;5.88;1.45;;;11.10;88.10;;;;;;9170642;19;20038;-69
2023/01/02 11:58:47;;;;;;;2.10;1.33;;;11.10;88.10;;;;;;9167635;19;20018;-70
2023/01/02 12:01:57;;;;;;;3.42;1.55;;;11.10;88.00;;;;;;9169769;19;20105;-69
2023/01/02 12:05:01;;;;;;;2.30;1.13;;;11.10;88.00;;;;;;9170928;19;20014;-71
2023/01/02 12:08:15;;;;;;;5.78;1.70;;;11.10;88.00;;;;;;9171839;19;20035;-71
2023/01/02 12:11:35;;;;;;;7.07;2.33;;;11.10;88.00;;;;;;9166476;19;20090;-69
2023/01/02 12:15:03;;;;;;;8.73;1.80;;;11.10;88.00;;;;;;9168117;19;20365;-69
2023/01/02 12:18:19;;;;;;;3.47;1.20;;;11.10;88.00;;;;;;9168169;19;20032;-70
2023/01/02 12:21:25;;;;;;;6.35;1.45;;;11.10;88.00;;;;;;9170752;19;20090;-72
2023/01/02 12:24:44;;;;;;;2.00;0.93;;;11.10;88.00;;;;;;9170965;19;20094;-69
2023/01/02 12:27:55;;;;;;;2.75;1.40;;;11.10;87.80;;;;;;9173447;19;20034;-72
2023/01/02 12:31:20;;;;;;;3.10;1.58;;;11.10;87.80;;;;;;9174372;19;20023;-72
2023/01/02 12:34:35;;;;;;;6.03;2.10;;;11.10;87.80;;;;;;9176092;19;20002;-71
2023/01/02 12:37:48;;;;;;;6.57;2.17;;;11.10;87.80;;;;;;9178920;19;20014;-71
2023/01/02 12:41:09;;;;;;;5.80;2.47;;;11.10;87.80;;;;;;9173226;19;20027;-73
2023/01/02 12:44:22;;;;;;;5.18;3.33;;;11.10;87.70;;;;;;9177121;19;20600;-72
2023/01/02 12:47:43;;;;;;;8.15;3.55;;;11.10;87.70;;;;;;9172924;19;20015;-72
2023/01/02 12:50:56;;;;;;;7.47;3.22;;;11.10;87.70;;;;;;9179446;19;20058;-70
2023/01/02 12:54:39;;;;;;;8.20;3.72;;;11.10;87.70;;;;;;9186234;19;20029;-72
2023/01/02 12:57:53;;;;;;;6.97;4.63;;;11.10;87.70;;;;;;9174460;19;20014;-71
2023/01/02 13:01:08;;;;;;;14.93;4.40;;;11.10;87.70;;;;;;9175394;19;20014;-69
2023/01/02 13:04:17;;;;;;;5.53;3.85;;;11.20;87.70;;;;;;9177932;19;20014;-71
2023/01/02 13:07:29;;;;;;;6.18;3.83;;;11.20;87.70;;;;;;9178442;19;20019;-73
2023/01/02 13:10:34;;;;;;;5.53;3.40;;;11.20;87.70;;;;;;9177798;19;20014;-68
2023/01/02 13:13:40;;;;;;;5.35;3.05;;;11.20;87.60;;;;;;9182477;19;20018;-72
2023/01/02 13:16:50;;;;;;;12.82;3.35;;;11.20;87.60;;;;;;9178894;19;20029;-72
2023/01/02 13:20:01;;;;;;;10.15;3.63;;;11.10;87.50;;;;;;9175998;19;20010;-73
2023/01/02 13:23:13;;;;;;;9.13;3.08;;;11.10;87.50;;;;;;9185268;19;20042;-71
2023/01/02 13:26:19;;;;;;;7.60;3.28;;;11.10;87.40;;;;;;9180652;19;20025;-71
2023/01/02 13:29:30;;;;;;;8.05;4.20;;;11.10;87.40;;;;;;9183215;19;20015;-72
2023/01/02 13:32:34;;;;;;;5.70;2.65;;;11.10;87.40;;;;;;9180603;19;20014;-72
2023/01/02 13:35:39;;;;;;;3.97;2.15;;;11.10;87.40;;;;;;9179331;19;20803;-71
2023/01/02 13:38:45;;;;;;;4.28;2.50;;;11.10;87.40;;;;;;9183306;19;20760;-73
2023/01/02 13:45:17;;;;;;;5.50;2.40;;;11.10;87.30;;;;;;9178448;19;20082;-72
2023/01/02 13:48:30;;;;;;;6.72;2.17;;;11.10;87.30;;;;;;9176853;19;20014;-71
2023/01/02 13:51:37;;;;;;;5.25;2.30;;;11.10;87.40;;;;;;9172530;19;20018;-72
2023/01/02 13:54:41;;;;;;;7.38;2.72;;;11.10;87.30;;;;;;9177749;19;20039;-70
2023/01/02 13:57:45;;;;;;;5.38;2.50;;;11.10;87.30;;;;;;9174242;19;20025;-71
2023/01/02 14:00:53;;;;;;;8.00;2.60;;;11.10;87.30;;;;;;9171164;19;20022;-71
2023/01/02 14:04:18;;;;;;;;;;;11.00;87.30;;;;;;9176732;19;20074;-72
2023/01/02 14:07:48;;;;;;;4.15;2.00;;;11.00;87.90;;;;;;9177260;19;20277;-71
2023/01/02 14:10:54;;;;;;;7.38;2.25;;;11.00;87.20;;;;;;9181983;19;21691;-72
2023/01/02 14:13:59;;;;;;;7.65;2.05;;;11.00;87.20;;;;;;9179803;19;20018;-70
2023/01/02 14:17:17;;;;;;;3.83;1.70;;;11.00;87.30;;;;;;9176752;19;20022;-72
2023/01/02 14:20:24;;;;;;;5.78;2.05;;;11.00;87.30;;;;;;9180552;19;20028;-70
2023/01/02 14:23:30;;;;;;;2.20;1.73;;;11.00;87.30;;;;;;9184914;19;20015;-73
2023/01/02 14:26:35;;;;;;;6.75;2.33;;;11.00;87.30;;;;;;9183690;19;20375;-71
2023/01/02 14:29:45;;;;;;;5.97;2.58;;;11.00;87.30;;;;;;9183014;19;20030;-72
2023/01/02 14:33:01;;;;;;;6.85;2.38;;;11.00;87.30;;;;;;9178782;19;20027;-71
2023/01/02 14:36:09;;;;;;;4.05;2.05;;;11.00;87.20;;;;;;9182076;19;20018;-72
2023/01/02 14:39:20;;;;;;;6.65;2.00;;;11.00;87.20;;;;;;9183849;19;20038;-72
2023/01/02 14:45:52;;;;;;;6.35;2.13;;;10.90;87.20;;;;;;9182200;19;20010;-73
2023/01/02 14:49:02;;;;;;;6.35;1.95;;;10.90;87.20;;;;;;9180273;19;20018;-70
2023/01/02 14:52:30;;;;;;;7.60;2.00;;;10.90;87.20;;;;;;9179681;19;20025;-72
2023/01/02 14:55:38;;;;;;;9.40;2.33;;;10.90;87.30;;;;;;9184084;19;20027;-71
2023/01/02 14:58:48;;;;;;;7.65;2.08;;;10.90;87.30;;;;;;9186562;19;20006;-72
2023/01/02 15:01:55;;;;;;;8.65;3.30;;;10.80;87.90;;;;;;9189169;19;20384;-73
2023/01/02 15:05:06;;;;;;;6.88;2.80;;;10.90;87.40;;;;;;9182870;19;20476;-71
2023/01/02 15:08:14;;;;;;;10.57;3.45;;;10.90;87.40;;;;;;9167933;19;20027;-72
2023/01/02 15:14:39;;;;;;;12.57;5.00;;;10.80;87.30;;;;;;9175670;19;20025;-71
2023/01/02 15:17:44;;;;;;;8.88;4.25;;;10.80;87.40;;;;;;9177899;19;20017;-71
2023/01/02 15:20:53;;;;;;;11.65;4.55;;;10.80;87.40;;;;;;9179148;19;20019;-73
2023/01/02 15:23:58;;;;;;;10.60;3.88;;;10.80;87.40;;;;;;9172188;19;20022;-72
2023/01/02 15:27:15;;;;;;;11.73;4.32;;;10.80;87.40;;;;;;9167146;19;20474;-70
2023/01/02 15:30:28;;;;;;;14.23;4.82;;;10.70;87.40;;;;;;9171890;19;20038;-72
2023/01/02 15:33:33;;;;;;;17.20;5.35;;;10.70;87.50;;;;;;9176335;19;20018;-71
2023/01/02 15:36:41;;;;;;;14.25;5.35;;;10.70;87.50;;;;;;9173485;19;20082;-72
2023/01/02 15:39:48;;;;;;;9.02;4.53;;;10.70;87.50;;;;;;9171225;19;20018;-72
2023/01/02 15:46:11;;;;;;;11.15;5.60;;;10.70;87.60;;;;;;9171933;19;20693;-72
2023/01/02 15:49:17;;;;;;;13.23;5.78;;;10.70;87.60;;;;;;9164757;19;20018;-71
2023/01/02 15:52:26;;;;;;;9.60;5.78;;;10.70;87.60;;;;;;9167830;19;20483;-70
2023/01/02 15:55:35;;;;;;;12.60;6.40;;;10.60;87.60;;;;;;9169382;19;20021;-69
2023/01/02 15:58:47;;;;;;;11.77;6.50;;;10.60;87.60;;;;;;9171089;19;20062;-69
2023/01/02 16:01:51;;;;;;;15.13;8.00;;;10.60;87.60;;;;;;9169667;19;20061;-69
2023/01/02 16:05:07;;;;;;;18.73;8.45;;;10.60;87.70;;;;;;9161220;19;20026;-70
2023/01/02 16:08:19;;;;;;;12.20;7.55;;;10.60;87.70;;;;;;9171825;19;20014;-69
2023/01/02 16:11:23;;;;;;;12.80;8.65;;;10.50;87.70;;;;;;9164111;19;20111;-69
2023/01/02 16:14:33;;;;;;;19.67;9.77;;;10.50;87.70;;;;;;9166658;19;20046;-71
2023/01/02 16:17:40;;;;;;;14.80;8.15;;;10.50;87.80;;;;;;9168853;19;20010;-70
2023/01/02 16:20:43;;;;;;;23.00;8.75;;;10.50;87.90;;;;;;9169088;19;20015;-69
2023/01/02 16:23:51;;;;;;;;;;;10.50;87.90;;;;;;9175362;19;20015;-68
2023/01/02 16:26:55;;;;;;;14.82;9.48;;;10.50;87.90;;;;;;9178883;19;19945;-70
2023/01/02 16:29:59;;;;;;;18.30;9.68;;;10.50;87.80;;;;;;9176199;19;20806;-69
2023/01/02 16:33:04;;;;;;;16.55;9.88;;;10.50;87.90;;;;;;9173430;19;20435;-71
2023/01/02 16:36:10;;;;;;;17.02;11.00;;;10.50;87.90;;;;;;9176829;19;20018;-69